createdAt,value
2018-11-12T00:00:44.946Z,82.14
2018-11-12T00:01:44.894Z,82.45
2018-11-12T00:02:44.883Z,82.75
2018-11-12T00:03:44.877Z,82.45
2018-11-12T00:04:45.485Z,82.65
2018-11-12T00:05:45.132Z,82.55
2018-11-12T00:06:44.880Z,82.35
2018-11-12T00:07:44.829Z,81.73
2018-11-12T00:08:44.819Z,81.84
2018-11-12T00:09:44.809Z,82.04
2018-11-12T00:10:44.798Z,81.43
2018-11-12T00:11:44.786Z,81.94
2018-11-12T00:12:45.120Z,81.63
2018-11-12T00:13:44.768Z,81.63
2018-11-12T00:14:44.757Z,81.63
2018-11-12T00:15:44.752Z,81.43
2018-11-12T00:16:44.733Z,81.43
2018-11-12T00:17:44.725Z,81.43
2018-11-12T00:18:44.752Z,81.23
2018-11-12T00:19:44.976Z,80.27
2018-11-12T00:20:44.693Z,80.27
2018-11-12T00:21:44.725Z,80.16
2018-11-12T00:22:44.670Z,80.27
2018-11-12T00:23:44.658Z,80.47
2018-11-12T00:24:44.685Z,79.96
2018-11-12T00:25:44.637Z,79.75
2018-11-12T00:26:44.906Z,80.27
2018-11-12T00:27:44.617Z,80.27
2018-11-12T00:28:44.613Z,79.96
2018-11-12T00:29:44.595Z,80.07
2018-11-12T00:30:44.897Z,80.27
2018-11-12T00:31:44.628Z,79.86
2018-11-12T00:32:44.563Z,79.96
2018-11-12T00:33:44.893Z,80.16
2018-11-12T00:34:44.540Z,80.07
2018-11-12T00:35:44.532Z,80.27
2018-11-12T00:36:44.561Z,79.96
2018-11-12T00:37:44.510Z,80.07
2018-11-12T00:38:44.498Z,79.86
2018-11-12T00:39:44.488Z,79.66
2018-11-12T00:40:44.770Z,79.96
2018-11-12T00:41:44.466Z,80.00
2018-11-12T00:42:44.493Z,79.75
2018-11-12T00:43:44.446Z,79.55
2018-11-12T00:44:44.436Z,79.45
2018-11-12T00:45:44.436Z,78.94
2018-11-12T00:46:44.414Z,79.86
2018-11-12T00:47:44.685Z,79.55
2018-11-12T00:48:44.735Z,79.35
2018-11-12T00:49:44.382Z,79.04
2018-11-12T00:50:44.396Z,79.35
2018-11-12T00:51:44.362Z,79.55
2018-11-12T00:52:45.016Z,79.25
2018-11-12T00:53:44.388Z,78.91
2018-11-12T00:54:44.656Z,79.66
2018-11-12T00:55:45.113Z,79.35
2018-11-12T00:56:44.307Z,79.04
2018-11-12T00:57:44.296Z,79.75
2018-11-12T00:58:44.291Z,79.75
2018-11-12T00:59:44.276Z,79.66
2018-11-12T01:00:44.302Z,79.66
2018-11-12T01:01:44.530Z,79.04
2018-11-12T01:02:44.246Z,79.66
2018-11-12T01:03:44.232Z,79.82
2018-11-12T01:04:44.221Z,79.52
2018-11-12T01:05:44.212Z,79.25
2018-11-12T01:06:44.268Z,79.35
2018-11-12T01:07:44.196Z,78.94
2018-11-12T01:08:44.473Z,78.84
2018-11-12T01:09:44.169Z,78.39
2018-11-12T01:10:44.162Z,78.60
2018-11-12T01:11:44.149Z,78.80
2018-11-12T01:12:44.179Z,79.14
2018-11-12T01:13:44.126Z,78.53
2018-11-12T01:14:44.119Z,78.53
2018-11-12T01:15:44.394Z,79.45
2018-11-12T01:16:44.096Z,79.55
2018-11-12T01:17:44.085Z,78.91
2018-11-12T01:18:44.113Z,78.80
2018-11-12T01:19:47.014Z,79.45
2018-11-12T01:20:47.014Z,78.84
2018-11-12T01:21:44.044Z,79.25
2018-11-12T01:22:45.014Z,79.14
2018-11-12T01:23:44.022Z,79.00
2018-11-12T01:24:44.161Z,79.55
2018-11-12T01:25:44.513Z,79.75
2018-11-12T01:26:44.513Z,79.25
2018-11-12T01:27:44.263Z,79.14
2018-11-12T01:28:43.969Z,79.25
2018-11-12T01:29:43.966Z,79.75
2018-11-12T01:30:43.985Z,79.04
2018-11-12T01:31:43.937Z,79.66
2018-11-12T01:32:43.936Z,79.55
2018-11-12T01:33:43.921Z,79.52
2018-11-12T01:34:43.905Z,80.07
2018-11-12T01:35:43.894Z,80.02
2018-11-12T01:36:43.924Z,79.35
2018-11-12T01:37:43.874Z,79.86
2018-11-12T01:38:43.865Z,79.14
2018-11-12T01:39:44.131Z,79.86
2018-11-12T01:40:43.840Z,81.18
2018-11-12T01:41:43.834Z,80.43
2018-11-12T01:42:43.891Z,80.43
2018-11-12T01:43:43.811Z,79.75
2018-11-12T01:44:43.802Z,80.98
2018-11-12T01:45:43.791Z,81.18
2018-11-12T01:46:44.077Z,81.59
2018-11-12T01:47:43.768Z,81.39
2018-11-12T01:48:43.796Z,81.39
2018-11-12T01:49:43.747Z,80.16
2018-11-12T01:50:43.736Z,81.70
2018-11-12T01:51:43.727Z,82.51
2018-11-12T01:52:43.715Z,81.70
2018-11-12T01:53:43.981Z,81.80
2018-11-12T01:54:43.735Z,81.84
2018-11-12T01:55:43.690Z,82.14
2018-11-12T01:56:43.677Z,82.71
2018-11-12T01:57:43.664Z,82.35
2018-11-12T01:58:43.653Z,82.24
2018-11-12T01:59:43.644Z,82.86
2018-11-12T02:00:43.934Z,82.35
2018-11-12T02:01:43.689Z,82.96
2018-11-12T02:02:43.610Z,82.75
2018-11-12T02:03:43.607Z,82.86
2018-11-12T02:04:43.647Z,83.37
2018-11-12T02:05:43.580Z,83.67
2018-11-12T02:06:43.883Z,83.37
2018-11-12T02:07:43.563Z,84.69
2018-11-12T02:08:43.647Z,83.67
2018-11-12T02:09:43.538Z,83.67
2018-11-12T02:10:43.530Z,83.78
2018-11-12T02:11:43.521Z,83.71
2018-11-12T02:12:43.545Z,84.12
2018-11-12T02:13:43.777Z,83.98
2018-11-12T02:14:43.590Z,83.71
2018-11-12T02:15:43.474Z,83.78
2018-11-12T02:16:43.463Z,83.71
2018-11-12T02:17:43.453Z,84.42
2018-11-12T02:18:43.653Z,84.83
2018-11-12T02:19:43.433Z,84.53
2018-11-12T02:20:43.706Z,83.57
2018-11-12T02:21:43.412Z,84.59
2018-11-12T02:22:43.405Z,83.78
2018-11-12T02:23:43.390Z,84.59
2018-11-12T02:24:43.420Z,83.57
2018-11-12T02:25:43.371Z,84.80
2018-11-12T02:26:43.361Z,84.08
2018-11-12T02:27:43.661Z,83.71
2018-11-12T02:28:43.337Z,83.87
2018-11-12T02:29:43.329Z,84.53
2018-11-12T02:30:43.359Z,84.63
2018-11-12T02:31:43.308Z,84.74
2018-11-12T02:32:43.319Z,85.14
2018-11-12T02:33:43.284Z,84.63
2018-11-12T02:34:43.553Z,84.42
2018-11-12T02:35:43.264Z,83.61
2018-11-12T02:36:43.317Z,83.00
2018-11-12T02:37:43.247Z,82.89
2018-11-12T02:38:43.233Z,83.67
2018-11-12T02:39:43.224Z,83.81
2018-11-12T02:40:43.216Z,83.81
2018-11-12T02:41:43.490Z,83.61
2018-11-12T02:42:43.232Z,84.42
2018-11-12T02:43:43.181Z,84.77
2018-11-12T02:44:43.170Z,84.88
2018-11-12T02:45:43.158Z,84.36
2018-11-12T02:46:43.148Z,84.57
2018-11-12T02:47:43.140Z,84.12
2018-11-12T02:48:43.449Z,84.12
2018-11-12T02:49:43.115Z,83.92
2018-11-12T02:50:43.108Z,84.22
2018-11-12T02:51:43.102Z,84.53
2018-11-12T02:52:43.088Z,84.98
2018-11-12T02:53:43.078Z,84.98
2018-11-12T02:54:43.116Z,85.49
2018-11-12T02:55:43.326Z,85.59
2018-11-12T02:56:43.046Z,85.59
2018-11-12T02:57:43.031Z,86.24
2018-11-12T02:58:43.021Z,85.73
2018-11-12T02:59:43.010Z,85.73
2018-11-12T03:02:22.880Z,85.73
2018-11-12T03:03:22.705Z,86.44
2018-11-12T03:04:22.685Z,86.44
2018-11-12T03:05:23.208Z,86.76
2018-11-12T03:06:25.108Z,86.35
2018-11-12T03:07:22.682Z,87.26
2018-11-12T03:08:23.033Z,86.76
2018-11-12T03:09:22.630Z,86.76
2018-11-12T03:10:22.623Z,86.44
2018-11-12T03:11:22.614Z,87.26
2018-11-12T03:12:22.605Z,87.16
2018-11-12T03:13:22.590Z,87.26
2018-11-12T03:14:22.711Z,87.06
2018-11-12T03:15:22.569Z,87.16
2018-11-12T03:16:22.559Z,86.85
2018-11-12T03:17:22.549Z,87.06
2018-11-12T03:18:22.537Z,87.16
2018-11-12T03:19:22.534Z,87.47
2018-11-12T03:20:23.710Z,87.67
2018-11-12T03:21:22.507Z,86.96
2018-11-12T03:22:22.495Z,86.96
2018-11-12T03:23:22.487Z,87.16
2018-11-12T03:24:22.475Z,87.67
2018-11-12T03:25:22.463Z,87.16
2018-11-12T03:26:22.570Z,87.77
2018-11-12T03:27:22.719Z,87.37
2018-11-12T03:28:22.439Z,87.57
2018-11-12T03:29:22.421Z,87.77
2018-11-12T03:30:22.417Z,87.47
2018-11-12T03:31:22.400Z,87.57
2018-11-12T03:32:22.504Z,87.16
2018-11-12T03:33:22.378Z,87.47
2018-11-12T03:34:22.647Z,87.67
2018-11-12T03:35:23.211Z,88.08
2018-11-12T03:36:22.347Z,87.57
2018-11-12T03:37:22.335Z,87.98
2018-11-12T03:38:22.478Z,87.88
2018-11-12T03:39:22.360Z,87.67
2018-11-12T03:40:22.314Z,87.51
2018-11-12T03:41:22.569Z,88.12
2018-11-12T03:42:22.285Z,88.02
2018-11-12T03:43:22.271Z,87.92
2018-11-12T03:44:22.383Z,88.12
2018-11-12T03:45:22.284Z,87.92
2018-11-12T03:46:22.240Z,88.12
2018-11-12T03:47:22.231Z,88.23
2018-11-12T03:48:22.516Z,88.74
2018-11-12T03:49:23.205Z,88.33
2018-11-12T03:50:22.399Z,88.64
2018-11-12T03:51:22.190Z,88.84
2018-11-12T03:52:22.180Z,88.74
2018-11-12T03:53:22.166Z,88.84
2018-11-12T03:54:22.158Z,88.33
2018-11-12T03:55:22.437Z,88.74
2018-11-12T03:56:22.512Z,88.74
2018-11-12T03:57:22.124Z,88.43
2018-11-12T03:58:22.117Z,88.84
2018-11-12T03:59:22.104Z,88.53
2018-11-12T04:00:24.807Z,88.64
2018-11-12T04:01:22.082Z,88.84
2018-11-12T04:02:22.192Z,88.64
2018-11-12T04:03:22.089Z,88.64
2018-11-12T04:04:22.053Z,88.59
2018-11-12T04:05:22.039Z,88.84
2018-11-12T04:06:22.032Z,88.84
2018-11-12T04:07:22.020Z,88.90
2018-11-12T04:08:22.433Z,88.53
2018-11-12T04:09:21.997Z,88.08
2018-11-12T04:10:21.988Z,88.29
2018-11-12T04:11:21.976Z,88.18
2018-11-12T04:12:21.966Z,88.49
2018-11-12T04:13:21.955Z,88.70
2018-11-12T04:14:22.225Z,88.12
2018-11-12T04:15:22.221Z,88.18
2018-11-12T04:16:21.923Z,88.23
2018-11-12T04:17:21.914Z,88.08
2018-11-12T04:18:21.902Z,88.08
2018-11-12T04:19:21.892Z,87.92
2018-11-12T04:20:22.000Z,88.79
2018-11-12T04:21:21.871Z,88.18
2018-11-12T04:22:22.141Z,87.98
2018-11-12T04:23:21.850Z,87.77
2018-11-12T04:24:21.839Z,87.37
2018-11-12T04:25:21.830Z,87.77
2018-11-12T04:26:21.937Z,87.98
2018-11-12T04:27:21.807Z,87.88
2018-11-12T04:28:21.798Z,88.29
2018-11-12T04:29:22.097Z,87.88
2018-11-12T04:30:22.303Z,87.57
2018-11-12T04:31:21.765Z,87.98
2018-11-12T04:32:21.912Z,88.18
2018-11-12T04:33:21.746Z,88.79
2018-11-12T04:34:21.733Z,88.29
2018-11-12T04:35:21.723Z,87.98
2018-11-12T04:36:21.993Z,88.18
2018-11-12T04:37:21.701Z,88.08
2018-11-12T04:38:21.822Z,88.29
2018-11-12T04:39:21.681Z,88.49
2018-11-12T04:40:21.671Z,88.08
2018-11-12T04:41:21.662Z,88.79
2018-11-12T04:42:21.649Z,88.49
2018-11-12T04:43:21.930Z,88.79
2018-11-12T04:44:21.755Z,88.79
2018-11-12T04:45:21.635Z,88.96
2018-11-12T04:46:21.608Z,89.00
2018-11-12T04:47:21.596Z,88.04
2018-11-12T04:48:21.584Z,87.98
2018-11-12T04:49:21.577Z,88.70
2018-11-12T04:50:21.982Z,87.98
2018-11-12T04:51:21.555Z,88.59
2018-11-12T04:52:21.544Z,88.79
2018-11-12T04:53:21.537Z,88.39
2018-11-12T04:54:21.523Z,88.59
2018-11-12T04:55:21.634Z,88.39
2018-11-12T04:56:21.622Z,88.45
2018-11-12T04:57:21.772Z,88.59
2018-11-12T04:58:21.481Z,88.49
2018-11-12T04:59:21.468Z,88.55
2018-11-12T05:00:21.459Z,88.70
2018-11-12T05:01:21.446Z,88.49
2018-11-12T05:02:21.592Z,88.55
2018-11-12T05:03:21.430Z,88.45
2018-11-12T05:04:21.726Z,88.08
2018-11-12T05:05:21.404Z,88.79
2018-11-12T05:06:21.398Z,88.49
2018-11-12T05:07:21.427Z,88.59
2018-11-12T05:08:22.143Z,88.08
2018-11-12T05:09:21.371Z,88.14
2018-11-12T05:10:21.356Z,88.49
2018-11-12T05:11:21.642Z,88.59
2018-11-12T05:12:21.331Z,88.14
2018-11-12T05:13:21.323Z,87.94
2018-11-12T05:14:21.512Z,88.45
2018-11-12T05:15:21.302Z,88.55
2018-11-12T05:16:21.288Z,88.76
2018-11-12T05:17:21.278Z,88.55
2018-11-12T05:18:21.544Z,88.45
2018-11-12T05:19:21.257Z,88.65
2018-11-12T05:20:21.368Z,88.76
2018-11-12T05:21:21.235Z,88.55
2018-11-12T05:22:21.269Z,87.94
2018-11-12T05:23:21.214Z,88.85
2018-11-12T05:24:21.206Z,88.24
2018-11-12T05:25:22.102Z,88.35
2018-11-12T05:26:21.322Z,89.26
2018-11-12T05:27:21.175Z,88.35
2018-11-12T05:28:21.162Z,88.76
2018-11-12T05:29:21.150Z,89.06
2018-11-12T05:30:21.139Z,89.06
2018-11-12T05:31:21.130Z,89.88
2018-11-12T05:32:21.250Z,90.02
2018-11-12T05:33:21.110Z,89.88
2018-11-12T05:34:21.098Z,89.92
2018-11-12T05:35:21.093Z,90.12
2018-11-12T05:36:21.079Z,90.29
2018-11-12T05:37:21.066Z,90.33
2018-11-12T05:38:21.679Z,89.92
2018-11-12T05:39:21.044Z,90.02
2018-11-12T05:40:21.038Z,90.53
2018-11-12T05:41:21.023Z,90.33
2018-11-12T05:42:21.013Z,89.92
2018-11-12T05:43:21.002Z,90.43
2018-11-12T05:44:21.129Z,90.23
2018-11-12T05:45:21.302Z,90.64
2018-11-12T05:46:21.694Z,90.43
2018-11-12T05:47:20.960Z,90.53
2018-11-12T05:48:21.692Z,89.98
2018-11-12T05:49:20.938Z,90.64
2018-11-12T05:50:21.859Z,90.64
2018-11-12T05:51:20.957Z,90.43
2018-11-12T05:52:21.693Z,90.43
2018-11-12T05:53:20.895Z,90.33
2018-11-12T05:54:20.885Z,90.84
2018-11-12T05:55:20.874Z,90.84
2018-11-12T05:56:20.982Z,90.84
2018-11-12T05:57:21.178Z,90.74
2018-11-12T05:58:20.845Z,90.84
2018-11-12T05:59:20.979Z,90.74
2018-11-12T06:00:21.015Z,91.46
2018-11-12T06:01:20.885Z,91.35
2018-11-12T06:02:21.160Z,91.46
2018-11-12T06:03:20.790Z,90.84
2018-11-12T06:04:21.201Z,90.64
2018-11-12T06:05:21.690Z,90.33
2018-11-12T06:06:20.759Z,90.84
2018-11-12T06:07:20.751Z,91.25
2018-11-12T06:08:20.779Z,91.25
2018-11-12T06:09:20.729Z,90.64
2018-11-12T06:10:20.716Z,91.46
2018-11-12T06:11:20.704Z,91.46
2018-11-12T06:12:20.694Z,91.56
2018-11-12T06:13:20.682Z,91.76
2018-11-12T06:14:20.710Z,91.35
2018-11-12T06:15:20.662Z,91.56
2018-11-12T06:16:20.977Z,91.35
2018-11-12T06:17:20.643Z,92.27
2018-11-12T06:18:20.639Z,91.46
2018-11-12T06:19:21.209Z,91.56
2018-11-12T06:20:20.672Z,91.76
2018-11-12T06:21:20.601Z,91.76
2018-11-12T06:22:20.658Z,91.96
2018-11-12T06:23:20.974Z,92.07
2018-11-12T06:24:20.569Z,91.96
2018-11-12T06:25:20.558Z,91.76
2018-11-12T06:26:20.746Z,91.66
2018-11-12T06:27:20.535Z,91.66
2018-11-12T06:28:20.560Z,91.76
2018-11-12T06:29:20.513Z,91.96
2018-11-12T06:30:20.950Z,92.07
2018-11-12T06:31:20.680Z,91.76
2018-11-12T06:32:20.522Z,92.07
2018-11-12T06:33:20.478Z,91.86
2018-11-12T06:34:20.701Z,91.96
2018-11-12T06:35:20.453Z,91.66
2018-11-12T06:36:20.466Z,91.86
2018-11-12T06:37:20.986Z,91.96
2018-11-12T06:38:20.629Z,91.56
2018-11-12T06:39:20.435Z,91.96
2018-11-12T06:40:20.401Z,92.17
2018-11-12T06:41:20.440Z,92.07
2018-11-12T06:42:20.440Z,92.17
2018-11-12T06:43:21.197Z,92.17
2018-11-12T06:44:20.718Z,91.86
2018-11-12T06:45:20.346Z,92.68
2018-11-12T06:46:20.334Z,92.37
2018-11-12T06:47:20.324Z,92.17
2018-11-12T06:48:20.312Z,92.17
2018-11-12T06:49:20.302Z,92.47
2018-11-12T06:50:20.330Z,92.27
2018-11-12T06:51:22.651Z,92.68
2018-11-12T06:52:20.298Z,92.27
2018-11-12T06:53:20.366Z,92.07
2018-11-12T06:54:20.305Z,92.47
2018-11-12T06:55:20.320Z,92.47
2018-11-12T06:56:20.364Z,92.58
2018-11-12T06:57:20.270Z,93.19
2018-11-12T06:58:20.700Z,93.09
2018-11-12T06:59:20.198Z,92.17
2018-11-12T07:00:20.185Z,92.88
2018-11-12T07:01:20.176Z,92.07
2018-11-12T07:02:20.225Z,92.99
2018-11-12T07:03:20.218Z,92.68
2018-11-12T07:04:20.687Z,92.78
2018-11-12T07:05:20.436Z,92.78
2018-11-12T07:06:20.721Z,93.70
2018-11-12T07:07:20.690Z,93.50
2018-11-12T07:08:22.651Z,93.50
2018-11-12T07:09:20.685Z,93.60
2018-11-12T07:10:20.699Z,93.91
2018-11-12T07:11:20.073Z,93.50
2018-11-12T07:12:21.517Z,94.21
2018-11-12T07:13:22.771Z,94.21
2018-11-12T07:14:20.309Z,93.80
2018-11-12T07:15:20.038Z,94.11
2018-11-12T07:16:21.115Z,93.70
2018-11-12T07:17:20.035Z,93.70
2018-11-12T07:18:20.008Z,93.91
2018-11-12T07:19:20.490Z,94.32
2018-11-12T07:20:20.084Z,94.42
2018-11-12T07:21:20.079Z,94.52
2018-11-12T07:22:20.042Z,95.13
2018-11-12T07:23:19.943Z,94.73
2018-11-12T07:24:19.934Z,94.32
2018-11-12T07:25:20.693Z,94.52
2018-11-12T07:26:20.545Z,94.42
2018-11-12T07:27:19.906Z,94.73
2018-11-12T07:28:19.892Z,94.32
2018-11-12T07:29:20.121Z,94.32
2018-11-12T07:30:19.875Z,94.42
2018-11-12T07:31:20.211Z,94.62
2018-11-12T07:32:19.944Z,94.42
2018-11-12T07:33:19.842Z,94.62
2018-11-12T07:34:19.830Z,94.11
2018-11-12T07:35:19.826Z,94.01
2018-11-12T07:36:19.807Z,94.01
2018-11-12T07:37:19.803Z,93.86
2018-11-12T07:38:19.857Z,94.37
2018-11-12T07:39:19.782Z,94.17
2018-11-12T07:40:19.761Z,93.66
2018-11-12T07:41:19.759Z,93.55
2018-11-12T07:42:19.779Z,93.76
2018-11-12T07:43:19.739Z,93.55
2018-11-12T07:44:20.108Z,93.35
2018-11-12T07:45:19.709Z,93.55
2018-11-12T07:46:19.698Z,93.96
2018-11-12T07:47:19.706Z,93.35
2018-11-12T07:48:19.680Z,93.55
2018-11-12T07:49:19.668Z,93.45
2018-11-12T07:50:19.831Z,93.55
2018-11-12T07:51:19.663Z,92.64
2018-11-12T07:52:19.796Z,92.43
2018-11-12T07:53:19.819Z,92.74
2018-11-12T07:54:19.732Z,93.35
2018-11-12T07:55:19.606Z,93.25
2018-11-12T07:56:20.112Z,93.45
2018-11-12T07:57:19.581Z,93.55
2018-11-12T07:58:19.600Z,93.76
2018-11-12T07:59:19.755Z,93.55
2018-11-12T08:00:19.577Z,93.76
2018-11-12T08:01:19.595Z,93.55
2018-11-12T08:02:19.719Z,93.66
2018-11-12T08:03:19.550Z,93.71
2018-11-12T08:04:19.591Z,93.35
2018-11-12T08:05:19.495Z,93.31
2018-11-12T08:06:19.488Z,93.41
2018-11-12T08:07:19.597Z,93.41
2018-11-12T08:08:20.040Z,92.80
2018-11-12T08:09:19.552Z,92.80
2018-11-12T08:10:19.443Z,92.86
2018-11-12T08:11:19.432Z,92.14
2018-11-12T08:12:19.422Z,92.24
2018-11-12T08:13:19.411Z,92.04
2018-11-12T08:14:19.504Z,92.35
2018-11-12T08:15:19.832Z,92.35
2018-11-12T08:16:19.380Z,92.24
2018-11-12T08:17:19.434Z,93.26
2018-11-12T08:18:19.358Z,92.55
2018-11-12T08:19:19.380Z,92.80
2018-11-12T08:20:26.175Z,93.37
2018-11-12T08:21:19.386Z,93.62
2018-11-12T08:22:20.775Z,92.65
2018-11-12T08:23:19.437Z,92.76
2018-11-12T08:24:19.422Z,93.41
2018-11-12T08:25:19.416Z,93.31
2018-11-12T08:26:19.520Z,93.37
2018-11-12T08:27:19.319Z,93.41
2018-11-12T08:28:19.324Z,93.41
2018-11-12T08:29:19.676Z,93.37
2018-11-12T08:30:19.361Z,92.65
2018-11-12T08:31:19.375Z,92.86
2018-11-12T08:32:19.344Z,92.24
2018-11-12T08:33:19.203Z,92.04
2018-11-12T08:34:19.189Z,92.20
2018-11-12T08:35:19.190Z,92.50
2018-11-12T08:36:19.351Z,92.10
2018-11-12T08:37:19.247Z,92.00
2018-11-12T08:38:19.364Z,92.50
2018-11-12T08:39:19.205Z,91.89
2018-11-12T08:40:19.179Z,91.75
2018-11-12T08:41:19.114Z,90.22
2018-11-12T08:42:19.984Z,91.44
2018-11-12T08:43:21.673Z,90.94
2018-11-12T08:44:19.370Z,90.01
2018-11-12T08:45:19.072Z,89.81
2018-11-12T08:46:19.672Z,89.77
2018-11-12T08:47:19.049Z,88.65
2018-11-12T08:48:19.735Z,89.06
2018-11-12T08:49:20.728Z,89.87
2018-11-12T08:50:20.674Z,89.67
2018-11-12T08:51:19.158Z,89.67
2018-11-12T08:52:19.097Z,89.63
2018-11-12T08:53:19.000Z,88.71
2018-11-12T08:54:19.063Z,88.81
2018-11-12T08:55:19.142Z,88.81
2018-11-12T08:56:19.678Z,88.75
2018-11-12T08:57:19.693Z,89.57
2018-11-12T08:58:19.736Z,88.51
2018-11-12T08:59:19.064Z,89.57
2018-11-12T09:00:19.109Z,89.01
2018-11-12T09:01:18.902Z,88.20
2018-11-12T09:02:19.703Z,88.26
2018-11-12T09:03:18.967Z,87.45
2018-11-12T09:04:19.639Z,87.55
2018-11-12T09:05:18.866Z,87.04
2018-11-12T09:06:19.799Z,87.45
2018-11-12T09:07:20.195Z,87.30
2018-11-12T09:08:19.049Z,87.20
2018-11-12T09:09:19.479Z,87.20
2018-11-12T09:10:19.092Z,86.80
2018-11-12T09:11:19.061Z,85.64
2018-11-12T09:12:19.454Z,86.55
2018-11-12T09:13:19.635Z,85.84
2018-11-12T09:14:19.205Z,86.19
2018-11-12T09:15:18.941Z,86.04
2018-11-12T09:16:20.281Z,86.65
2018-11-12T09:17:18.943Z,86.65
2018-11-12T09:18:18.779Z,86.04
2018-11-12T09:19:19.634Z,86.08
2018-11-12T09:20:19.858Z,86.39
2018-11-12T09:21:20.136Z,86.49
2018-11-12T09:22:18.687Z,86.19
2018-11-12T09:23:19.056Z,86.39
2018-11-12T09:24:20.079Z,86.39
2018-11-12T09:25:18.655Z,86.90
2018-11-12T09:26:18.763Z,86.29
2018-11-12T09:27:18.812Z,86.39
2018-11-12T09:28:18.789Z,86.39
2018-11-12T09:29:18.786Z,85.68
2018-11-12T09:30:18.627Z,85.43
2018-11-12T09:31:20.059Z,85.94
2018-11-12T09:32:18.868Z,85.88
2018-11-12T09:33:18.600Z,85.37
2018-11-12T09:34:18.652Z,85.88
2018-11-12T09:35:19.031Z,86.39
2018-11-12T09:36:18.575Z,86.25
2018-11-12T09:37:18.860Z,85.64
2018-11-12T09:39:18.619Z,85.19
2018-11-12T09:40:18.710Z,85.19
2018-11-12T09:41:18.695Z,84.88
2018-11-12T09:42:18.588Z,84.48
2018-11-12T09:43:18.694Z,84.68
2018-11-12T09:44:18.663Z,84.13
2018-11-12T09:45:18.600Z,83.18
2018-11-12T09:46:18.810Z,81.96
2018-11-12T09:47:18.798Z,82.53
2018-11-12T09:48:18.428Z,82.33
2018-11-12T09:49:18.478Z,81.41
2018-11-12T09:50:18.827Z,80.97
2018-11-12T09:51:18.423Z,81.41
2018-11-12T09:52:18.442Z,81.07
2018-11-12T09:53:19.188Z,81.18
2018-11-12T09:54:18.671Z,81.56
2018-11-12T09:55:18.484Z,82.31
2018-11-12T09:56:18.673Z,83.32
2018-11-12T09:57:18.508Z,83.56
2018-11-12T09:58:18.373Z,83.83
2018-11-12T09:59:18.357Z,84.17
2018-11-12T10:00:18.517Z,84.78
2018-11-12T10:01:19.008Z,84.17
2018-11-12T10:02:19.109Z,84.17
2018-11-12T10:03:18.858Z,84.17
2018-11-12T10:04:19.113Z,84.64
2018-11-12T10:05:19.457Z,84.74
2018-11-12T10:06:19.708Z,84.58
2018-11-12T10:07:19.370Z,84.17
2018-11-12T10:08:20.083Z,84.34
2018-11-12T10:09:20.191Z,83.93
2018-11-12T10:10:20.523Z,83.32
2018-11-12T10:11:20.066Z,82.98
2018-11-12T10:12:20.236Z,81.96
2018-11-12T10:13:21.411Z,82.23
2018-11-12T10:14:20.970Z,81.11
2018-11-12T10:15:22.190Z,81.01
2018-11-12T10:16:22.112Z,81.48
2018-11-12T10:17:21.711Z,80.87
2018-11-12T10:18:18.100Z,80.97
2018-11-12T10:19:18.666Z,80.87
2018-11-12T10:20:18.683Z,80.66
2018-11-12T10:21:18.072Z,80.97
2018-11-12T10:22:18.094Z,80.80
2018-11-12T10:23:18.078Z,80.26
2018-11-12T10:24:18.103Z,80.77
2018-11-12T10:25:18.135Z,79.92
2018-11-12T10:26:18.461Z,79.38
2018-11-12T10:27:18.089Z,78.56
2018-11-12T10:28:17.983Z,79.51
2018-11-12T10:29:18.664Z,79.11
2018-11-12T10:30:17.961Z,79.61
2018-11-12T10:31:17.953Z,79.61
2018-11-12T10:32:18.616Z,78.77
2018-11-12T10:33:17.932Z,77.86
2018-11-12T10:34:17.923Z,77.34
2018-11-12T10:35:18.006Z,78.97
2018-11-12T10:36:17.913Z,78.56
2018-11-12T10:37:17.940Z,78.87
2018-11-12T10:38:18.210Z,77.95
2018-11-12T10:39:17.966Z,78.06
2018-11-12T10:40:17.863Z,78.77
2018-11-12T10:41:18.283Z,77.86
2018-11-12T10:42:17.839Z,77.92
2018-11-12T10:43:17.928Z,77.92
2018-11-12T10:44:18.962Z,77.92
2018-11-12T10:45:17.891Z,77.72
2018-11-12T10:46:17.905Z,77.31
2018-11-12T10:47:17.897Z,76.97
2018-11-12T10:48:18.023Z,76.97
2018-11-12T10:49:17.957Z,76.63
2018-11-12T10:50:18.297Z,76.67
2018-11-12T10:51:17.836Z,76.77
2018-11-12T10:52:17.760Z,76.53
2018-11-12T10:53:17.759Z,75.82
2018-11-12T10:54:17.887Z,75.18
2018-11-12T10:55:17.986Z,74.54
2018-11-12T10:56:18.001Z,75.18
2018-11-12T10:57:18.080Z,74.57
2018-11-12T10:58:17.879Z,74.23
2018-11-12T10:59:17.745Z,74.98
2018-11-12T11:00:29.123Z,74.74
2018-11-12T11:01:17.760Z,74.43
2018-11-12T11:02:18.061Z,74.23
2018-11-12T11:03:17.664Z,74.13
2018-11-12T11:04:18.115Z,73.72
2018-11-12T11:05:17.975Z,73.63
2018-11-12T11:06:18.019Z,73.72
2018-11-12T11:07:17.862Z,73.22
2018-11-12T11:08:18.122Z,73.28
2018-11-12T11:09:17.595Z,73.19
2018-11-12T11:10:17.599Z,73.05
2018-11-12T11:11:18.103Z,73.08
2018-11-12T11:12:18.303Z,73.19
2018-11-12T11:13:17.603Z,72.64
2018-11-12T11:14:18.035Z,73.52
2018-11-12T11:15:17.504Z,72.24
2018-11-12T11:16:17.521Z,72.44
2018-11-12T11:17:17.696Z,71.91
2018-11-12T11:18:17.994Z,72.21
2018-11-12T11:19:18.182Z,72.34
2018-11-12T11:20:17.644Z,71.84
2018-11-12T11:21:17.459Z,73.39
2018-11-12T11:22:17.608Z,73.46
2018-11-12T11:23:17.503Z,72.95
2018-11-12T11:24:17.507Z,73.46
2018-11-12T11:25:18.655Z,72.55
2018-11-12T11:26:18.405Z,73.02
2018-11-12T11:27:17.683Z,73.11
2018-11-12T11:28:17.568Z,72.27
2018-11-12T11:29:17.484Z,72.27
2018-11-12T11:30:17.516Z,70.86
2018-11-12T11:31:17.422Z,70.93
2018-11-12T11:32:17.352Z,70.09
2018-11-12T11:33:17.298Z,69.99
2018-11-12T11:34:17.288Z,69.48
2018-11-12T11:35:17.680Z,69.79
2018-11-12T11:36:17.271Z,70.09
2018-11-12T11:37:17.308Z,70.59
2018-11-12T11:38:18.633Z,70.93
2018-11-12T11:39:17.292Z,70.83
2018-11-12T11:40:17.474Z,71.87
2018-11-12T11:41:17.373Z,71.77
2018-11-12T11:42:17.269Z,71.67
2018-11-12T11:43:19.290Z,72.11
2018-11-12T11:44:17.664Z,72.00
2018-11-12T11:45:17.368Z,71.67
2018-11-12T11:46:17.939Z,70.86
2018-11-12T11:47:17.453Z,71.03
2018-11-12T11:48:17.266Z,70.83
2018-11-12T11:49:17.162Z,68.21
2018-11-12T11:50:19.670Z,67.20
2018-11-12T11:51:17.376Z,63.67
2018-11-12T11:52:17.714Z,62.26
2018-11-12T11:53:18.048Z,64.16
2018-11-12T11:54:17.685Z,65.93
2018-11-12T11:55:17.758Z,66.36
2018-11-12T11:56:17.822Z,61.44
2018-11-12T11:57:19.889Z,54.94
2018-11-12T11:58:18.124Z,52.12
2018-11-12T11:59:17.208Z,52.22
2018-11-12T12:00:17.820Z,51.03
2018-11-12T12:01:17.007Z,47.33
2018-11-12T12:02:21.662Z,42.80
2018-11-12T12:03:17.661Z,43.91
2018-11-12T12:04:17.291Z,45.52
2018-11-12T12:05:17.076Z,45.62
2018-11-12T12:06:17.665Z,49.08
2018-11-12T12:07:18.002Z,53.87
2018-11-12T12:08:18.728Z,52.82
2018-11-12T12:09:17.780Z,54.19
2018-11-12T12:10:17.050Z,55.65
2018-11-12T12:11:17.097Z,57.43
2018-11-12T12:12:17.075Z,59.32
2018-11-12T12:13:16.921Z,60.98
2018-11-12T12:14:20.609Z,61.61
2018-11-12T12:15:16.899Z,62.75
2018-11-12T12:16:17.627Z,63.39
2018-11-12T12:17:16.923Z,63.28
2018-11-12T12:18:17.012Z,63.71
2018-11-12T12:19:17.020Z,64.12
2018-11-12T12:20:17.972Z,64.12
2018-11-12T12:21:17.298Z,64.42
2018-11-12T12:22:17.012Z,64.62
2018-11-12T12:23:17.517Z,64.52
2018-11-12T12:24:30.131Z,64.42
2018-11-12T12:28:18.971Z,64.32
2018-11-12T12:29:15.511Z,64.55
2018-11-12T12:30:14.725Z,64.35
2018-11-12T12:31:13.887Z,64.25
2018-11-12T12:32:13.881Z,64.65
2018-11-12T12:33:15.438Z,64.32
2018-11-12T12:34:14.029Z,63.71
2018-11-12T12:35:13.845Z,63.62
2018-11-12T12:36:14.633Z,63.62
2018-11-12T12:37:15.725Z,63.31
2018-11-12T12:38:14.335Z,63.92
2018-11-12T12:39:16.344Z,63.42
2018-11-12T12:40:16.431Z,63.82
2018-11-12T12:41:14.731Z,63.68
2018-11-12T12:42:16.323Z,63.39
2018-11-12T12:43:13.854Z,63.39
2018-11-12T12:44:15.787Z,64.22
2018-11-12T12:45:14.704Z,63.79
2018-11-12T12:46:14.668Z,63.62
2018-11-12T12:47:14.182Z,63.48
2018-11-12T12:48:16.801Z,63.92
2018-11-12T12:49:14.011Z,64.22
2018-11-12T12:50:13.773Z,63.39
2018-11-12T12:51:13.855Z,63.28
2018-11-12T12:52:14.302Z,63.39
2018-11-12T12:53:13.772Z,62.98
2018-11-12T12:54:13.913Z,62.98
2018-11-12T12:55:14.372Z,63.08
2018-11-12T12:56:13.841Z,62.48
2018-11-12T12:57:14.285Z,62.88
2018-11-12T12:58:16.062Z,63.28